Time;durP1;ratioP1;P1;durP2;ratioP2;P2;SDS_P1;SDS_P2;PMS_P1;PMS_P2;Temp;Humidity;BMP_temperature;BMP_pressure;BME280_temperature;BME280_humidity;BME280_pressure;Samples;Min_cycle;Max_cycle;Signal;HPM_P1;HPM_P2
2022/04/10 00:02:23;;;;;;;0.00;0.00;;;6.80;85.30;;;;;;4151479;28;20055;-71
2022/04/10 00:04:45;;;;;;;0.00;0.00;;;6.80;85.60;;;;;;4178304;28;20537;-71
2022/04/10 00:07:11;;;;;;;0.00;0.00;;;6.80;85.50;;;;;;4165877;28;20132;-70
2022/04/10 00:09:35;;;;;;;0.00;0.00;;;6.80;85.40;;;;;;4164940;28;20041;-69
2022/04/10 00:11:58;;;;;;;0.00;0.00;;;6.90;85.20;;;;;;4164800;28;20041;-71
2022/04/10 00:14:25;;;;;;;0.00;0.00;;;6.90;85.10;;;;;;4151552;28;20054;-69
2022/04/10 00:16:48;;;;;;;0.00;0.00;;;6.90;85.50;;;;;;4137469;28;20045;-73
2022/04/10 00:19:14;;;;;;;0.00;0.00;;;6.80;85.60;;;;;;4164568;28;20041;-70
2022/04/10 00:21:37;;;;;;;0.00;0.00;;;6.70;86.50;;;;;;4165417;28;20038;-71
2022/04/10 00:24:01;;;;;;;0.00;0.00;;;6.50;87.50;;;;;;4165358;28;20041;-72
2022/04/10 00:26:26;;;;;;;0.00;0.00;;;6.60;87.90;;;;;;4164493;28;20045;-71
2022/04/10 00:28:51;;;;;;;0.00;0.00;;;6.80;88.00;;;;;;4164989;28;20045;-73
2022/04/10 00:31:16;;;;;;;0.00;0.00;;;6.90;87.80;;;;;;4150859;28;20107;-68
2022/04/10 00:33:47;;;;;;;0.00;0.00;;;6.90;87.80;;;;;;4164422;28;20049;-71
2022/04/10 00:36:20;;;;;;;0.00;0.00;;;6.90;88.10;;;;;;4176683;28;20284;-70
2022/04/10 00:38:46;;;;;;;0.00;0.00;;;6.80;88.40;;;;;;4162975;28;20127;-73
2022/04/10 00:41:10;;;;;;;0.00;0.00;;;6.70;88.60;;;;;;4165246;28;20136;-72
2022/04/10 00:44:06;;;;;;;0.00;0.00;;;6.50;89.00;;;;;;4153688;28;20152;-71
2022/04/10 00:46:39;;;;;;;0.00;0.00;;;6.40;89.40;;;;;;4124804;28;20529;-71
2022/04/10 00:49:11;;;;;;;0.00;0.00;;;6.00;89.90;;;;;;4136898;28;20069;-69
2022/04/10 00:51:52;;;;;;;0.00;0.00;;;5.90;90.20;;;;;;4178035;28;20114;-70
2022/04/10 00:54:30;;;;;;;0.00;0.00;;;5.60;90.10;;;;;;4151719;28;20045;-71
2022/04/10 00:57:02;;;;;;;0.00;0.00;;;5.30;91.00;;;;;;4165906;28;20049;-73
2022/04/10 00:59:40;;;;;;;0.00;0.00;;;5.30;91.20;;;;;;4180673;28;20049;-72
2022/04/10 01:02:12;;;;;;;0.00;0.00;;;5.30;91.30;;;;;;4180736;28;20461;-72
2022/04/10 01:04:49;;;;;;;0.00;0.00;;;5.30;91.80;;;;;;4167632;28;20045;-73
2022/04/10 01:07:18;;;;;;;0.00;0.00;;;5.30;91.30;;;;;;4153307;28;20037;-71
2022/04/10 01:09:41;;;;;;;0.00;0.00;;;5.20;91.60;;;;;;4153496;28;20042;-71
2022/04/10 01:12:08;;;;;;;0.00;0.00;;;5.00;91.60;;;;;;4153236;28;20052;-69
2022/04/10 01:14:30;;;;;;;0.00;0.00;;;5.10;92.10;;;;;;4152847;28;20175;-70
2022/04/10 01:16:55;;;;;;;0.00;0.00;;;5.30;91.90;;;;;;4152465;28;20453;-68
2022/04/10 01:19:20;;;;;;;0.00;0.00;;;5.40;91.80;;;;;;4152951;28;20050;-73
2022/04/10 01:21:46;;;;;;;0.00;0.00;;;5.60;91.50;;;;;;4152752;28;20052;-70
2022/04/10 01:24:11;;;;;;;0.00;0.00;;;5.70;91.30;;;;;;4152997;28;20156;-71
2022/04/10 01:26:33;;;;;;;0.00;0.00;;;5.70;91.10;;;;;;4166391;28;20368;-69
2022/04/10 01:29:06;;;;;;;0.00;0.00;;;5.70;91.20;;;;;;4152362;28;20126;-71
2022/04/10 01:31:31;;;;;;;0.00;0.00;;;5.60;91.20;;;;;;4166590;28;20476;-72
2022/04/10 01:33:57;;;;;;;0.00;0.00;;;5.70;91.40;;;;;;4152614;28;20046;-68
2022/04/10 01:36:23;;;;;;;0.00;0.00;;;5.70;91.30;;;;;;4139003;28;20053;-71
2022/04/10 01:38:45;;;;;;;0.00;0.00;;;5.40;91.20;;;;;;4165949;28;20050;-68
2022/04/10 01:41:13;;;;;;;0.00;0.00;;;5.50;91.60;;;;;;4166483;28;20073;-73
2022/04/10 01:43:43;;;;;;;0.00;0.00;;;5.60;91.50;;;;;;4166404;28;20053;-73
2022/04/10 01:46:05;;;;;;;0.00;0.00;;;5.60;91.20;;;;;;4168512;28;20041;-71
2022/04/10 01:48:27;;;;;;;0.00;0.00;;;5.80;91.10;;;;;;4169880;28;20416;-70
2022/04/10 01:50:49;;;;;;;0.00;0.00;;;5.80;90.90;;;;;;4141878;28;20042;-69
2022/04/10 01:53:12;;;;;;;0.00;0.00;;;5.90;90.80;;;;;;4155880;28;20074;-71
2022/04/10 01:55:34;;;;;;;0.00;0.00;;;5.80;90.70;;;;;;4156076;28;20125;-70
2022/04/10 01:58:00;;;;;;;0.00;0.00;;;5.80;90.70;;;;;;4169432;28;20100;-70
2022/04/10 02:00:24;;;;;;;0.00;0.00;;;5.60;90.70;;;;;;4169641;28;20065;-71
2022/04/10 02:02:46;;;;;;;0.00;0.00;;;5.60;90.90;;;;;;4169232;28;20049;-73
2022/04/10 02:05:10;;;;;;;0.00;0.00;;;5.60;90.90;;;;;;4156282;28;20056;-72
2022/04/10 02:07:35;;;;;;;0.00;0.00;;;5.60;90.90;;;;;;4155799;28;20485;-70
2022/04/10 02:10:00;;;;;;;0.00;0.00;;;5.50;91.40;;;;;;4142371;28;20393;-70
2022/04/10 02:12:25;;;;;;;0.00;0.00;;;5.50;91.20;;;;;;4155620;28;20038;-68
2022/04/10 02:14:47;;;;;;;0.00;0.00;;;5.50;91.40;;;;;;4155232;28;20046;-74
2022/04/10 02:17:10;;;;;;;0.00;0.00;;;5.70;91.20;;;;;;4141842;28;20444;-70
2022/04/10 02:19:37;;;;;;;0.00;0.00;;;5.70;91.00;;;;;;4183118;28;20083;-73
2022/04/10 02:22:04;;;;;;;0.00;0.00;;;5.80;91.00;;;;;;4155300;28;20361;-69
2022/04/10 02:24:27;;;;;;;0.00;0.00;;;5.90;90.80;;;;;;4169061;28;20398;-71
2022/04/10 02:26:49;;;;;;;0.00;0.00;;;6.10;90.60;;;;;;4141302;28;20050;-73
2022/04/10 02:29:17;;;;;;;0.00;0.00;;;6.10;90.50;;;;;;4155446;28;20093;-71
2022/04/10 02:31:46;;;;;;;0.00;0.00;;;6.20;90.50;;;;;;4155498;28;20527;-68
2022/04/10 02:34:11;;;;;;;0.00;0.00;;;6.20;90.40;;;;;;4155460;28;20041;-70
2022/04/10 02:36:33;;;;;;;0.00;0.00;;;6.30;90.40;;;;;;4155057;28;20137;-71
2022/04/10 02:39:02;;;;;;;0.00;0.00;;;6.30;90.30;;;;;;4154685;28;20129;-70
2022/04/10 02:41:24;;;;;;;0.00;0.00;;;6.30;90.30;;;;;;4169112;28;20095;-71
2022/04/10 02:43:50;;;;;;;0.00;0.00;;;6.40;90.20;;;;;;4155098;28;20045;-70
2022/04/10 02:46:17;;;;;;;0.00;0.00;;;6.30;90.30;;;;;;4154853;28;20048;-71
2022/04/10 02:48:39;;;;;;;0.00;0.00;;;6.40;90.30;;;;;;4141328;28;20384;-71
2022/04/10 02:51:05;;;;;;;0.00;0.00;;;6.40;90.20;;;;;;4141496;28;20049;-71
2022/04/10 02:53:27;;;;;;;0.00;0.00;;;6.30;90.20;;;;;;4141840;28;20133;-71
2022/04/10 02:55:54;;;;;;;0.00;0.00;;;6.40;90.10;;;;;;4169273;28;20041;-69
2022/04/10 02:58:16;;;;;;;0.00;0.00;;;6.40;90.00;;;;;;4167676;28;20057;-69
2022/04/10 03:00:39;;;;;;;0.00;0.00;;;6.30;89.90;;;;;;4168833;28;20038;-70
2022/04/10 03:03:03;;;;;;;0.00;0.00;;;6.30;90.00;;;;;;4154314;28;20121;-71
2022/04/10 03:05:28;;;;;;;0.00;0.00;;;6.30;90.10;;;;;;4154877;28;20096;-71
2022/04/10 03:07:51;;;;;;;0.00;0.00;;;6.30;90.00;;;;;;4169030;28;20099;-69
2022/04/10 03:10:19;;;;;;;0.00;0.00;;;6.40;90.00;;;;;;4154831;28;20050;-69
2022/04/10 03:12:47;;;;;;;0.00;0.00;;;6.40;90.00;;;;;;4168962;28;20128;-69
2022/04/10 03:15:09;;;;;;;0.00;0.00;;;6.40;89.90;;;;;;4168356;28;20054;-71
2022/04/10 03:17:31;;;;;;;0.00;0.00;;;6.40;90.00;;;;;;4154876;28;20132;-70
2022/04/10 03:19:55;;;;;;;0.00;0.00;;;6.50;90.00;;;;;;4154878;28;20050;-72
2022/04/10 03:22:18;;;;;;;0.00;0.00;;;6.40;89.90;;;;;;4154477;28;20369;-69
2022/04/10 03:24:41;;;;;;;0.00;0.00;;;6.40;89.80;;;;;;4154043;28;20050;-70
2022/04/10 03:27:06;;;;;;;0.00;0.00;;;6.30;89.60;;;;;;4154225;28;20060;-73
2022/04/10 03:29:29;;;;;;;0.00;0.00;;;6.40;89.80;;;;;;4182104;28;20151;-70
2022/04/10 03:31:51;;;;;;;0.00;0.00;;;6.20;89.70;;;;;;4140918;28;20259;-67
2022/04/10 03:34:17;;;;;;;0.00;0.00;;;6.30;89.90;;;;;;4168292;28;20045;-70
2022/04/10 03:36:39;;;;;;;0.00;0.00;;;6.30;90.00;;;;;;4168019;28;20107;-70
2022/04/10 03:39:03;;;;;;;0.00;0.00;;;6.30;89.70;;;;;;4154106;28;20041;-71
2022/04/10 03:41:25;;;;;;;0.00;0.00;;;6.30;89.40;;;;;;4154349;28;20053;-72
2022/04/10 03:43:50;;;;;;;0.00;0.00;;;6.40;89.10;;;;;;4167977;28;20037;-69
2022/04/10 03:46:14;;;;;;;0.00;0.00;;;6.40;89.10;;;;;;4154616;28;20104;-71
2022/04/10 03:48:38;;;;;;;0.00;0.00;;;6.50;89.10;;;;;;4154559;28;20500;-69
2022/04/10 03:51:01;;;;;;;0.00;0.00;;;6.50;89.20;;;;;;4167536;28;20049;-73
2022/04/10 03:53:23;;;;;;;0.00;0.00;;;6.40;89.10;;;;;;4154562;28;20045;-68
2022/04/10 03:55:48;;;;;;;0.00;0.00;;;6.30;89.00;;;;;;4168131;28;20065;-71
2022/04/10 03:58:17;;;;;;;0.00;0.00;;;6.20;89.50;;;;;;4153772;28;20062;-69
2022/04/10 04:00:39;;;;;;;0.00;0.00;;;6.20;89.70;;;;;;4153862;28;20038;-69
2022/04/10 04:03:06;;;;;;;0.00;0.00;;;6.10;89.80;;;;;;4153277;28;20496;-73
2022/04/10 04:05:31;;;;;;;0.00;0.00;;;6.10;90.10;;;;;;4153940;28;20360;-69
2022/04/10 04:07:57;;;;;;;0.00;0.00;;;6.30;90.00;;;;;;4153580;28;20053;-71
2022/04/10 04:10:23;;;;;;;0.00;0.00;;;6.40;90.00;;;;;;4167502;28;20034;-69
2022/04/10 04:12:46;;;;;;;0.00;0.00;;;6.40;89.40;;;;;;4153457;28;20431;-70
2022/04/10 04:15:11;;;;;;;0.00;0.00;;;6.40;89.60;;;;;;4153958;28;20053;-71
2022/04/10 04:17:33;;;;;;;0.00;0.00;;;6.40;89.40;;;;;;4167199;28;20045;-69
2022/04/10 04:19:58;;;;;;;0.00;0.00;;;6.30;89.50;;;;;;4181260;28;20158;-70
2022/04/10 04:22:25;;;;;;;0.00;0.00;;;6.30;89.80;;;;;;4167510;28;20060;-70
2022/04/10 04:24:47;;;;;;;0.00;0.00;;;6.30;89.90;;;;;;4153189;28;20412;-70
2022/04/10 04:27:11;;;;;;;0.00;0.00;;;6.30;89.90;;;;;;4153468;28;20041;-71
2022/04/10 04:29:37;;;;;;;0.00;0.00;;;6.20;90.10;;;;;;4153420;28;20046;-71
2022/04/10 04:32:02;;;;;;;0.00;0.00;;;6.20;90.30;;;;;;4153544;28;20100;-75
2022/04/10 04:34:29;;;;;;;0.00;0.00;;;6.10;90.30;;;;;;4167152;28;20053;-71
2022/04/10 04:36:57;;;;;;;0.00;0.00;;;6.10;90.40;;;;;;4166802;28;20037;-69
2022/04/10 04:39:25;;;;;;;0.00;0.00;;;6.00;90.60;;;;;;4166958;28;20052;-70
2022/04/10 04:41:47;;;;;;;0.00;0.00;;;5.90;90.80;;;;;;4167378;28;20049;-69
2022/04/10 04:44:10;;;;;;;0.00;0.00;;;6.00;90.80;;;;;;4153258;28;20046;-72
2022/04/10 04:46:34;;;;;;;0.00;0.00;;;6.10;90.70;;;;;;4167010;28;20060;-70
2022/04/10 04:48:59;;;;;;;0.00;0.00;;;6.00;90.70;;;;;;4152772;28;20164;-72
2022/04/10 04:51:24;;;;;;;0.00;0.00;;;5.70;91.10;;;;;;4153362;28;20149;-69
2022/04/10 04:53:46;;;;;;;0.00;0.00;;;5.50;91.60;;;;;;4153086;28;20049;-72
2022/04/10 04:56:11;;;;;;;0.00;0.00;;;5.20;92.00;;;;;;4180824;28;20048;-69
2022/04/10 04:58:34;;;;;;;0.00;0.00;;;5.10;92.20;;;;;;4153001;28;20057;-70
2022/04/10 05:00:57;;;;;;;0.00;0.00;;;5.10;92.20;;;;;;4152898;28;20066;-71
2022/04/10 05:03:27;;;;;;;0.00;0.00;;;5.20;92.20;;;;;;4166922;28;20107;-71
2022/04/10 05:05:49;;;;;;;0.00;0.00;;;5.10;92.20;;;;;;4166829;28;20144;-70
2022/04/10 05:08:19;;;;;;;0.00;0.00;;;5.00;92.40;;;;;;4167982;28;20069;-72
2022/04/10 05:10:42;;;;;;;0.00;0.00;;;5.00;92.50;;;;;;4152831;28;20338;-70
2022/04/10 05:13:08;;;;;;;0.00;0.00;;;5.00;92.50;;;;;;4166848;28;20149;-69
2022/04/10 05:15:31;;;;;;;0.00;0.00;;;5.00;92.50;;;;;;4166705;28;20484;-69
2022/04/10 05:17:53;;;;;;;0.00;0.00;;;5.00;92.60;;;;;;4166824;28;20069;-70
2022/04/10 05:20:18;;;;;;;0.00;0.00;;;4.90;92.80;;;;;;4152244;28;20436;-70
2022/04/10 05:23:03;;;;;;;0.00;0.00;;;4.90;93.00;;;;;;4155335;28;20052;-71
2022/04/10 05:25:29;;;;;;;0.00;0.00;;;4.90;93.00;;;;;;4166646;28;20464;-71
2022/04/10 05:27:51;;;;;;;0.00;0.00;;;4.90;93.00;;;;;;4152510;28;20046;-73
2022/04/10 05:30:16;;;;;;;0.00;0.00;;;5.00;93.10;;;;;;4166581;28;20069;-69
2022/04/10 05:32:46;;;;;;;0.00;0.00;;;5.00;93.10;;;;;;4152473;28;20365;-71
2022/04/10 05:35:10;;;;;;;0.00;0.00;;;5.00;93.10;;;;;;4166797;28;20073;-70
2022/04/10 05:37:35;;;;;;;0.00;0.00;;;5.10;93.20;;;;;;4166605;28;20111;-69
2022/04/10 05:39:59;;;;;;;0.00;0.00;;;5.20;93.20;;;;;;4166882;28;20060;-73
2022/04/10 05:42:21;;;;;;;0.00;0.00;;;5.10;93.30;;;;;;4152700;28;20046;-71
2022/04/10 05:44:46;;;;;;;0.00;0.00;;;5.10;93.50;;;;;;4152329;28;20048;-73
2022/04/10 05:47:11;;;;;;;0.00;0.00;;;5.20;93.30;;;;;;4152543;28;20109;-69
2022/04/10 05:49:33;;;;;;;0.00;0.00;;;5.50;93.40;;;;;;4166543;28;20046;-72
2022/04/10 05:51:59;;;;;;;0.00;0.00;;;5.90;93.20;;;;;;4152691;28;20081;-69
2022/04/10 05:54:21;;;;;;;0.00;0.00;;;6.20;92.60;;;;;;4152635;28;20038;-70
2022/04/10 05:56:46;;;;;;;0.00;0.00;;;6.30;92.20;;;;;;4165855;28;20502;-70
2022/04/10 05:59:11;;;;;;;0.00;0.00;;;6.50;91.80;;;;;;4166285;28;20046;-70
2022/04/10 06:01:36;;;;;;;0.00;0.00;;;6.50;91.50;;;;;;4152544;28;20147;-72
2022/04/10 06:03:59;;;;;;;0.00;0.00;;;6.30;91.40;;;;;;4152490;28;20046;-69
2022/04/10 06:06:26;;;;;;;0.00;0.00;;;6.20;91.40;;;;;;4152509;28;20101;-70
2022/04/10 06:08:55;;;;;;;0.00;0.00;;;6.00;91.40;;;;;;4151826;28;20046;-71
2022/04/10 06:11:20;;;;;;;0.00;0.00;;;5.90;91.60;;;;;;4152401;28;20507;-72
2022/04/10 06:13:42;;;;;;;0.00;0.00;;;6.10;91.60;;;;;;4152585;28;20046;-71
2022/04/10 06:16:09;;;;;;;0.00;0.00;;;5.90;91.20;;;;;;4166961;28;20045;-71
2022/04/10 06:18:32;;;;;;;0.00;0.00;;;5.70;91.60;;;;;;4166636;28;20041;-70
2022/04/10 06:20:58;;;;;;;0.00;0.00;;;5.60;91.90;;;;;;4139101;28;20133;-71
2022/04/10 06:23:23;;;;;;;0.00;0.00;;;5.40;92.20;;;;;;4166282;28;20045;-69
2022/04/10 06:25:51;;;;;;;0.00;0.00;;;5.30;92.50;;;;;;4166211;28;20056;-71
2022/04/10 06:28:16;;;;;;;0.00;0.00;;;5.50;92.60;;;;;;4166491;28;20044;-69
2022/04/10 06:30:43;;;;;;;0.00;0.00;;;5.70;92.50;;;;;;4165655;28;20049;-70
2022/04/10 06:33:06;;;;;;;0.00;0.00;;;5.90;92.30;;;;;;4168939;28;20037;-71
2022/04/10 06:35:36;;;;;;;0.00;0.00;;;6.10;92.20;;;;;;4155514;28;20396;-73
2022/04/10 06:38:03;;;;;;;0.00;0.00;;;6.30;91.90;;;;;;4168825;28;20046;-72
2022/04/10 06:40:27;;;;;;;0.00;0.00;;;6.50;92.10;;;;;;4155082;28;20042;-71
2022/04/10 06:42:49;;;;;;;0.00;0.00;;;6.60;91.50;;;;;;4154917;28;20057;-71
2022/04/10 06:45:21;;;;;;;0.00;0.00;;;6.50;91.00;;;;;;4168882;28;20073;-70
2022/04/10 06:48:03;;;;;;;0.00;0.00;;;6.50;91.20;;;;;;4168668;28;20041;-71
2022/04/10 06:50:40;;;;;;;0.00;0.00;;;6.60;91.00;;;;;;4168618;28;20057;-69
2022/04/10 06:53:11;;;;;;;0.00;0.00;;;6.50;91.00;;;;;;4168393;28;20049;-67
2022/04/10 06:55:34;;;;;;;0.00;0.00;;;6.50;91.30;;;;;;4154912;28;20060;-72
2022/04/10 06:57:59;;;;;;;0.00;0.00;;;6.50;91.30;;;;;;4168529;28;20434;-73
2022/04/10 07:00:23;;;;;;;0.00;0.00;;;6.40;91.10;;;;;;4168733;28;20500;-73
2022/04/10 07:02:45;;;;;;;0.00;0.00;;;6.60;91.30;;;;;;4182369;28;20041;-70
2022/04/10 07:05:11;;;;;;;0.00;0.00;;;6.70;90.70;;;;;;4168905;28;20060;-70
2022/04/10 07:07:40;;;;;;;0.00;0.00;;;6.80;91.00;;;;;;4168466;28;20041;-71
2022/04/10 07:10:02;;;;;;;0.00;0.00;;;7.10;90.80;;;;;;4167104;28;20033;-72
2022/04/10 07:12:25;;;;;;;0.00;0.00;;;7.40;90.60;;;;;;4140754;28;20054;-72
2022/04/10 07:14:51;;;;;;;0.00;0.00;;;7.60;90.10;;;;;;4153942;28;20058;-71
2022/04/10 07:17:13;;;;;;;0.00;0.00;;;7.50;88.70;;;;;;4154121;28;20050;-70
2022/04/10 07:19:38;;;;;;;0.00;0.00;;;7.50;88.40;;;;;;4140957;28;20057;-70
2022/04/10 07:24:46;;;;;;;0.00;0.00;;;7.30;89.00;;;;;;4154123;28;20145;-71
2022/04/10 07:27:08;;;;;;;0.00;0.00;;;7.10;88.40;;;;;;4167893;28;20184;-72
2022/04/10 07:29:43;;;;;;;0.00;0.00;;;7.10;89.30;;;;;;4154171;28;20049;-71
2022/04/10 07:32:07;;;;;;;0.00;0.00;;;7.30;88.60;;;;;;4140896;28;20046;-71
2022/04/10 07:34:37;;;;;;;0.00;0.00;;;7.10;86.20;;;;;;4153999;28;20128;-70
2022/04/10 07:37:10;;;;;;;0.00;0.00;;;7.00;87.00;;;;;;4153658;28;20046;-68
2022/04/10 07:39:41;;;;;;;0.00;0.00;;;7.10;87.10;;;;;;4154112;28;20566;-69
2022/04/10 07:42:17;;;;;;;0.00;0.00;;;7.20;86.50;;;;;;4153923;28;20081;-71
2022/04/10 07:45:01;;;;;;;0.00;0.00;;;7.10;86.30;;;;;;4153685;28;20503;-71
2022/04/10 07:47:38;;;;;;;0.00;0.00;;;6.90;87.10;;;;;;4167634;28;20055;-70
2022/04/10 07:50:00;;;;;;;0.00;0.00;;;6.80;87.90;;;;;;4154345;28;20505;-70
2022/04/10 07:52:23;;;;;;;0.00;0.00;;;7.00;88.40;;;;;;4154934;28;20052;-71
2022/04/10 07:54:56;;;;;;;0.00;0.00;;;7.40;88.20;;;;;;4154009;28;20399;-73
2022/04/10 07:57:20;;;;;;;0.00;0.00;;;7.80;87.00;;;;;;4151173;28;20061;-71
2022/04/10 07:59:45;;;;;;;0.00;0.00;;;8.00;84.80;;;;;;4152789;28;20478;-70
2022/04/10 08:02:15;;;;;;;0.00;0.00;;;8.20;85.10;;;;;;4151352;28;20139;-71
2022/04/10 08:04:38;;;;;;;0.00;0.00;;;8.40;84.80;;;;;;4151775;28;20057;-70
2022/04/10 08:10:11;;;;;;;0.00;0.00;;;8.60;81.10;;;;;;4137925;28;20151;-69
2022/04/10 08:12:34;;;;;;;0.00;0.00;;;8.60;81.50;;;;;;4165277;28;20041;-73
2022/04/10 08:14:56;;;;;;;0.00;0.00;;;8.60;80.90;;;;;;4151127;28;20054;-72
2022/04/10 08:17:18;;;;;;;0.00;0.00;;;8.90;81.60;;;;;;4165239;28;20525;-70
2022/04/10 08:19:40;;;;;;;0.00;0.00;;;9.00;79.40;;;;;;4164777;28;20091;-70
2022/04/10 08:22:04;;;;;;;0.00;0.00;;;9.10;79.50;;;;;;4151106;28;20370;-71
2022/04/10 08:24:30;;;;;;;0.00;0.00;;;9.20;79.70;;;;;;4164919;28;20061;-70
2022/04/10 08:26:52;;;;;;;0.00;0.00;;;9.40;78.80;;;;;;4150348;28;20050;-71
2022/04/10 08:29:19;;;;;;;0.00;0.00;;;9.70;77.70;;;;;;4151502;28;20143;-69
2022/04/10 08:31:41;;;;;;;0.00;0.00;;;9.80;75.60;;;;;;4151039;28;20033;-71
2022/04/10 08:34:06;;;;;;;0.00;0.00;;;10.00;76.10;;;;;;4151228;28;20045;-71
2022/04/10 08:36:28;;;;;;;0.00;0.00;;;9.90;74.50;;;;;;4124051;28;20046;-69
2022/04/10 08:38:50;;;;;;;0.00;0.00;;;10.00;74.40;;;;;;4150599;28;20042;-70
2022/04/10 08:41:18;;;;;;;0.00;0.00;;;10.50;74.10;;;;;;4151001;28;20042;-70
2022/04/10 08:43:41;;;;;;;0.00;0.00;;;10.50;72.40;;;;;;4150803;28;20072;-73
2022/04/10 08:46:04;;;;;;;0.00;0.00;;;10.20;72.80;;;;;;4150747;28;20042;-71
2022/04/10 08:48:30;;;;;;;0.00;0.00;;;10.20;74.00;;;;;;4150588;28;20042;-72
2022/04/10 08:50:54;;;;;;;0.00;0.00;;;10.20;73.70;;;;;;4150320;28;20510;-71
2022/04/10 08:53:18;;;;;;;0.00;0.00;;;10.00;74.50;;;;;;4137232;28;20061;-71
2022/04/10 08:55:40;;;;;;;0.00;0.00;;;10.00;73.60;;;;;;4149956;28;20050;-70
2022/04/10 08:58:05;;;;;;;0.00;0.00;;;10.30;73.00;;;;;;4164190;28;20057;-70
2022/04/10 09:00:30;;;;;;;0.00;0.00;;;10.70;72.10;;;;;;4164257;28;20033;-73
2022/04/10 09:02:55;;;;;;;0.00;0.00;;;10.90;70.50;;;;;;4164004;28;20053;-71
2022/04/10 09:05:25;;;;;;;0.00;0.00;;;11.00;69.50;;;;;;4164379;28;20416;-70
2022/04/10 09:08:11;;;;;;;0.00;0.00;;;10.90;68.90;;;;;;4150428;28;20042;-71
2022/04/10 09:11:01;;;;;;;0.00;0.00;;;11.00;69.20;;;;;;4164335;28;20069;-71
2022/04/10 09:13:48;;;;;;;0.00;0.00;;;11.20;68.00;;;;;;4176612;28;20098;-71
2022/04/10 09:16:14;;;;;;;0.00;0.00;;;11.20;68.10;;;;;;4150453;28;20049;-70
2022/04/10 09:18:58;;;;;;;0.00;0.00;;;11.30;67.80;;;;;;4150803;28;20471;-72
2022/04/10 09:21:25;;;;;;;0.00;0.00;;;10.90;67.20;;;;;;4177689;28;20069;-74
2022/04/10 09:24:04;;;;;;;0.00;0.00;;;11.00;68.00;;;;;;4123191;28;20156;-70
2022/04/10 09:26:27;;;;;;;0.00;0.00;;;11.00;67.60;;;;;;4123343;28;20057;-71
2022/04/10 09:28:52;;;;;;;0.00;0.00;;;11.10;66.90;;;;;;4163386;28;20569;-73
2022/04/10 09:31:28;;;;;;;0.00;0.00;;;11.20;65.00;;;;;;4164181;28;20037;-71
2022/04/10 09:33:50;;;;;;;0.00;0.00;;;11.30;64.20;;;;;;4164030;28;20056;-72
2022/04/10 09:36:14;;;;;;;0.00;0.00;;;11.30;64.40;;;;;;4164219;28;20468;-71
2022/04/10 09:38:36;;;;;;;0.00;0.00;;;11.30;65.30;;;;;;4164189;28;20531;-72
2022/04/10 09:41:13;;;;;;;0.00;0.00;;;11.20;65.80;;;;;;4149850;28;20107;-70
2022/04/10 09:43:47;;;;;;;0.00;0.00;;;11.10;65.40;;;;;;4150599;28;20060;-71
2022/04/10 09:46:13;;;;;;;0.00;0.00;;;10.90;64.80;;;;;;4136591;28;20050;-71
2022/04/10 09:48:35;;;;;;;0.00;0.00;;;11.20;66.00;;;;;;4150312;28;20103;-72
2022/04/10 09:51:03;;;;;;;0.00;0.00;;;11.50;64.40;;;;;;4136532;28;20049;-72
2022/04/10 09:53:26;;;;;;;0.00;0.00;;;11.50;63.50;;;;;;4136941;28;20435;-69
2022/04/10 09:55:56;;;;;;;0.00;0.00;;;11.30;62.90;;;;;;4150307;28;20424;-71
2022/04/10 09:58:21;;;;;;;0.00;0.00;;;11.00;63.50;;;;;;4163711;28;20141;-70
2022/04/10 10:00:44;;;;;;;0.00;0.00;;;10.80;63.10;;;;;;4149700;28;20065;-68
2022/04/10 10:03:10;;;;;;;0.00;0.00;;;10.70;63.90;;;;;;4136291;28;20045;-70
2022/04/10 10:05:33;;;;;;;0.00;0.00;;;10.60;64.80;;;;;;4150270;28;20084;-71
2022/04/10 10:07:56;;;;;;;0.00;0.00;;;10.40;65.50;;;;;;4153177;28;20162;-70
2022/04/10 10:10:20;;;;;;;0.00;0.00;;;10.40;64.10;;;;;;4166880;28;20041;-71
2022/04/10 10:12:46;;;;;;;0.00;0.00;;;10.50;63.40;;;;;;4152792;28;20048;-72
2022/04/10 10:15:09;;;;;;;0.00;0.00;;;10.20;61.30;;;;;;4139597;28;20045;-74
2022/04/10 10:17:32;;;;;;;0.00;0.00;;;10.00;62.30;;;;;;4152950;28;20133;-71
2022/04/10 10:19:57;;;;;;;0.00;0.00;;;10.00;62.40;;;;;;4153155;28;20414;-71
2022/04/10 10:22:22;;;;;;;0.00;0.00;;;10.10;62.60;;;;;;4166688;28;20049;-68
2022/04/10 10:25:02;;;;;;;0.00;0.00;;;10.10;62.30;;;;;;4152425;28;20045;-71
2022/04/10 10:27:56;;;;;;;0.00;0.00;;;10.00;62.20;;;;;;4152762;28;20048;-68
2022/04/10 10:30:29;;;;;;;0.00;0.00;;;10.10;62.70;;;;;;4166540;28;20392;-74
2022/04/10 10:33:16;;;;;;;0.00;0.00;;;10.40;61.60;;;;;;4166313;28;20051;-69
2022/04/10 10:35:44;;;;;;;0.00;0.00;;;10.60;60.60;;;;;;4166547;28;20043;-71
2022/04/10 10:38:22;;;;;;;0.00;0.00;;;10.70;59.60;;;;;;4166626;28;20064;-73
2022/04/10 10:40:44;;;;;;;0.00;0.00;;;10.80;59.60;;;;;;4152422;28;20060;-71
2022/04/10 10:43:08;;;;;;;0.00;0.00;;;10.80;58.90;;;;;;4166476;28;20589;-71
2022/04/10 10:45:34;;;;;;;0.00;0.00;;;10.50;55.70;;;;;;4152707;28;20054;-69
2022/04/10 10:48:28;;;;;;;0.00;0.00;;;10.40;58.20;;;;;;4166178;28;20050;-70
2022/04/10 10:50:53;;;;;;;0.00;0.00;;;10.70;56.30;;;;;;4165991;28;20049;-71
2022/04/10 10:53:23;;;;;;;0.00;0.00;;;10.80;55.30;;;;;;4152811;28;20049;-69
2022/04/10 10:55:50;;;;;;;0.00;0.00;;;10.90;55.80;;;;;;4153039;28;20038;-71
2022/04/10 10:58:29;;;;;;;0.00;0.00;;;11.10;56.10;;;;;;4166027;28;20470;-72
2022/04/10 11:00:56;;;;;;;0.00;0.00;;;11.30;56.10;;;;;;4165611;28;20087;-71
2022/04/10 11:03:22;;;;;;;0.00;0.00;;;11.40;55.10;;;;;;4165877;28;20107;-72
2022/04/10 11:05:46;;;;;;;0.00;0.00;;;11.30;55.60;;;;;;4166234;28;20041;-72
2022/04/10 11:08:13;;;;;;;0.00;0.00;;;11.40;55.60;;;;;;4152728;28;20060;-69
2022/04/10 11:10:39;;;;;;;0.00;0.00;;;11.40;54.90;;;;;;4152567;28;20049;-70
2022/04/10 11:13:06;;;;;;;0.00;0.00;;;11.40;54.20;;;;;;4151832;28;20137;-71
2022/04/10 11:15:31;;;;;;;0.00;0.00;;;11.70;53.90;;;;;;4152539;28;20059;-71
2022/04/10 11:17:54;;;;;;;0.00;0.00;;;12.00;53.60;;;;;;4151329;28;20049;-72
2022/04/10 11:20:17;;;;;;;0.00;0.00;;;12.30;52.70;;;;;;4166164;28;20053;-72
2022/04/10 11:22:47;;;;;;;0.00;0.00;;;12.30;51.50;;;;;;4151952;28;20057;-70
2022/04/10 11:25:12;;;;;;;0.00;0.00;;;12.10;49.70;;;;;;4152888;28;20045;-71
2022/04/10 11:27:54;;;;;;;0.00;0.00;;;12.00;50.70;;;;;;4165930;28;20052;-69
2022/04/10 11:30:31;;;;;;;0.00;0.00;;;12.30;51.60;;;;;;4165987;28;20049;-69
2022/04/10 11:32:59;;;;;;;0.00;0.00;;;12.40;50.00;;;;;;4151729;28;20509;-70
2022/04/10 11:35:29;;;;;;;0.00;0.00;;;12.40;51.30;;;;;;4166112;28;20125;-70
2022/04/10 11:37:54;;;;;;;0.00;0.00;;;12.70;51.00;;;;;;4151801;28;20053;-70
2022/04/10 11:40:22;;;;;;;0.00;0.00;;;12.70;48.90;;;;;;4152030;28;20042;-73
2022/04/10 11:42:46;;;;;;;0.00;0.00;;;12.60;49.00;;;;;;4151464;28;20133;-71
2022/04/10 11:45:12;;;;;;;0.00;0.00;;;12.40;49.80;;;;;;4152021;28;20448;-70
2022/04/10 11:47:35;;;;;;;0.00;0.00;;;12.40;49.00;;;;;;4152092;28;20488;-69
2022/04/10 11:50:00;;;;;;;0.00;0.00;;;12.70;50.00;;;;;;4152029;28;20112;-71
2022/04/10 11:52:25;;;;;;;0.00;0.00;;;13.10;49.50;;;;;;4138106;28;20049;-74
2022/04/10 11:54:50;;;;;;;0.00;0.00;;;13.30;48.30;;;;;;4137720;28;20489;-70
2022/04/10 11:57:12;;;;;;;0.00;0.00;;;13.50;48.60;;;;;;4154325;28;20396;-70
2022/04/10 11:59:39;;;;;;;0.00;0.00;;;13.80;48.10;;;;;;4154329;28;20041;-73
2022/04/10 12:02:02;;;;;;;0.00;0.00;;;13.50;46.70;;;;;;4154374;28;20483;-70
2022/04/10 12:04:24;;;;;;;0.00;0.00;;;13.20;47.50;;;;;;4167903;28;20061;-71
2022/04/10 12:06:47;;;;;;;0.00;0.00;;;12.90;47.60;;;;;;4140095;28;20722;-72
2022/04/10 12:09:11;;;;;;;0.00;0.00;;;12.60;47.80;;;;;;4167903;28;20076;-69
2022/04/10 12:11:43;;;;;;;0.00;0.00;;;12.40;49.50;;;;;;4140848;28;20634;-71
2022/04/10 12:14:26;;;;;;;0.00;0.00;;;12.00;47.90;;;;;;4154101;28;20558;-72
2022/04/10 12:16:52;;;;;;;0.00;0.00;;;12.00;50.00;;;;;;4153885;28;20498;-71
2022/04/10 12:19:14;;;;;;;0.00;0.00;;;12.50;50.00;;;;;;4167759;28;20056;-72
2022/04/10 12:21:49;;;;;;;0.00;0.00;;;12.80;48.30;;;;;;4167911;28;20377;-72
2022/04/10 12:24:19;;;;;;;0.00;0.00;;;12.60;48.60;;;;;;4153583;28;20045;-70
2022/04/10 12:26:43;;;;;;;0.00;0.00;;;12.20;48.90;;;;;;4153591;28;20052;-71
2022/04/10 12:29:05;;;;;;;0.00;0.00;;;11.90;49.70;;;;;;4153295;28;20037;-72
2022/04/10 12:31:28;;;;;;;0.00;0.00;;;12.10;51.20;;;;;;4153982;28;20046;-72
2022/04/10 12:33:56;;;;;;;0.00;0.00;;;12.50;50.70;;;;;;4167693;28;20435;-70
2022/04/10 12:36:21;;;;;;;0.00;0.00;;;12.80;48.90;;;;;;4153610;28;20096;-72
2022/04/10 12:38:43;;;;;;;0.00;0.00;;;13.00;47.60;;;;;;4153395;28;20048;-72
2022/04/10 12:41:05;;;;;;;0.00;0.00;;;13.30;47.20;;;;;;4153727;28;20464;-72
2022/04/10 12:43:32;;;;;;;0.00;0.00;;;13.20;47.00;;;;;;4154034;28;20099;-69
2022/04/10 12:46:18;;;;;;;0.00;0.00;;;13.10;48.20;;;;;;4153479;28;20448;-71
2022/04/10 12:48:40;;;;;;;0.00;0.00;;;12.80;49.00;;;;;;4139325;28;20050;-72
2022/04/10 12:51:21;;;;;;;0.00;0.00;;;12.60;50.00;;;;;;4153426;28;20038;-72
2022/04/10 12:53:49;;;;;;;0.00;0.00;;;12.60;51.80;;;;;;4153648;28;20045;-70
2022/04/10 12:56:20;;;;;;;0.00;0.00;;;12.70;51.60;;;;;;4167017;28;20103;-70